sensor_id;sensor_type;location;lat;lon;timestamp;P1;durP1;ratioP1;P2;durP2;ratioP2
20334;SDS011;10325;51.468;5.804;2023-03-01T00:01:22;1.90;;;1.70;;
20334;SDS011;10325;51.468;5.804;2023-03-01T00:03:56;1.73;;;1.33;;
20334;SDS011;10325;51.468;5.804;2023-03-01T00:06:44;1.97;;;1.67;;
20334;SDS011;10325;51.468;5.804;2023-03-01T00:09:16;1.70;;;1.60;;
20334;SDS011;10325;51.468;5.804;2023-03-01T00:11:49;1.60;;;1.50;;
20334;SDS011;10325;51.468;5.804;2023-03-01T00:14:17;2.17;;;1.70;;
20334;SDS011;10325;51.468;5.804;2023-03-01T00:16:47;1.60;;;1.30;;
20334;SDS011;10325;51.468;5.804;2023-03-01T00:19:18;2.97;;;1.80;;
20334;SDS011;10325;51.468;5.804;2023-03-01T00:21:57;2.97;;;1.60;;
20334;SDS011;10325;51.468;5.804;2023-03-01T00:24:26;1.80;;;1.70;;
20334;SDS011;10325;51.468;5.804;2023-03-01T00:26:58;1.80;;;1.67;;
20334;SDS011;10325;51.468;5.804;2023-03-01T00:29:29;3.00;;;1.67;;
20334;SDS011;10325;51.468;5.804;2023-03-01T00:31:59;1.53;;;1.43;;
20334;SDS011;10325;51.468;5.804;2023-03-01T00:34:37;1.80;;;1.70;;
20334;SDS011;10325;51.468;5.804;2023-03-01T00:37:06;1.43;;;1.27;;
20334;SDS011;10325;51.468;5.804;2023-03-01T00:39:38;1.70;;;1.60;;
20334;SDS011;10325;51.468;5.804;2023-03-01T00:42:11;1.60;;;1.47;;
20334;SDS011;10325;51.468;5.804;2023-03-01T00:44:39;1.47;;;1.37;;
20334;SDS011;10325;51.468;5.804;2023-03-01T00:47:09;3.10;;;1.73;;
20334;SDS011;10325;51.468;5.804;2023-03-01T00:49:39;1.67;;;1.43;;
20334;SDS011;10325;51.468;5.804;2023-03-01T00:52:09;1.30;;;1.17;;
20334;SDS011;10325;51.468;5.804;2023-03-01T00:54:40;1.70;;;1.50;;
20334;SDS011;10325;51.468;5.804;2023-03-01T00:57:11;1.70;;;1.60;;
20334;SDS011;10325;51.468;5.804;2023-03-01T00:59:41;2.00;;;1.30;;
20334;SDS011;10325;51.468;5.804;2023-03-01T01:02:11;2.90;;;1.53;;
20334;SDS011;10325;51.468;5.804;2023-03-01T01:04:47;2.17;;;1.77;;
20334;SDS011;10325;51.468;5.804;2023-03-01T01:07:18;1.50;;;1.40;;
20334;SDS011;10325;51.468;5.804;2023-03-01T01:09:53;1.80;;;1.70;;
20334;SDS011;10325;51.468;5.804;2023-03-01T01:12:24;1.53;;;1.43;;
20334;SDS011;10325;51.468;5.804;2023-03-01T01:14:57;1.53;;;1.30;;
20334;SDS011;10325;51.468;5.804;2023-03-01T01:17:27;1.83;;;1.47;;
20334;SDS011;10325;51.468;5.804;2023-03-01T01:19:55;1.77;;;1.30;;
20334;SDS011;10325;51.468;5.804;2023-03-01T01:22:24;1.73;;;1.50;;
20334;SDS011;10325;51.468;5.804;2023-03-01T01:24:52;1.60;;;1.50;;
20334;SDS011;10325;51.468;5.804;2023-03-01T01:27:26;1.50;;;1.30;;
20334;SDS011;10325;51.468;5.804;2023-03-01T01:29:59;1.90;;;1.80;;
20334;SDS011;10325;51.468;5.804;2023-03-01T01:32:32;1.37;;;1.27;;
20334;SDS011;10325;51.468;5.804;2023-03-01T01:34:59;2.20;;;1.90;;
20334;SDS011;10325;51.468;5.804;2023-03-01T01:37:28;1.50;;;1.40;;
20334;SDS011;10325;51.468;5.804;2023-03-01T01:40:04;1.60;;;1.33;;
20334;SDS011;10325;51.468;5.804;2023-03-01T01:42:35;1.67;;;1.33;;
20334;SDS011;10325;51.468;5.804;2023-03-01T01:47:59;2.10;;;1.60;;
20334;SDS011;10325;51.468;5.804;2023-03-01T01:50:34;1.60;;;1.50;;
20334;SDS011;10325;51.468;5.804;2023-03-01T01:53:10;1.40;;;1.10;;
20334;SDS011;10325;51.468;5.804;2023-03-01T01:56:00;1.63;;;1.53;;
20334;SDS011;10325;51.468;5.804;2023-03-01T01:58:41;1.63;;;1.43;;
20334;SDS011;10325;51.468;5.804;2023-03-01T02:01:25;1.47;;;1.37;;
20334;SDS011;10325;51.468;5.804;2023-03-01T02:03:56;1.83;;;1.33;;
20334;SDS011;10325;51.468;5.804;2023-03-01T02:06:41;1.47;;;1.20;;
20334;SDS011;10325;51.468;5.804;2023-03-01T02:09:19;1.47;;;1.37;;
20334;SDS011;10325;51.468;5.804;2023-03-01T02:11:51;1.23;;;1.13;;
20334;SDS011;10325;51.468;5.804;2023-03-01T02:14:19;2.00;;;1.80;;
20334;SDS011;10325;51.468;5.804;2023-03-01T02:16:48;1.53;;;1.13;;
20334;SDS011;10325;51.468;5.804;2023-03-01T02:19:41;1.57;;;1.40;;
20334;SDS011;10325;51.468;5.804;2023-03-01T02:22:38;1.53;;;1.40;;
20334;SDS011;10325;51.468;5.804;2023-03-01T02:25:30;2.30;;;1.43;;
20334;SDS011;10325;51.468;5.804;2023-03-01T02:30:48;1.83;;;1.53;;
20334;SDS011;10325;51.468;5.804;2023-03-01T02:33:41;1.67;;;1.57;;
20334;SDS011;10325;51.468;5.804;2023-03-01T02:36:22;2.23;;;1.90;;
20334;SDS011;10325;51.468;5.804;2023-03-01T02:39:00;1.67;;;1.57;;
20334;SDS011;10325;51.468;5.804;2023-03-01T02:41:30;2.00;;;1.83;;
20334;SDS011;10325;51.468;5.804;2023-03-01T02:44:05;2.07;;;1.60;;
20334;SDS011;10325;51.468;5.804;2023-03-01T02:46:46;1.67;;;1.57;;
20334;SDS011;10325;51.468;5.804;2023-03-01T02:49:20;1.90;;;1.30;;
20334;SDS011;10325;51.468;5.804;2023-03-01T02:52:01;1.47;;;1.30;;
20334;SDS011;10325;51.468;5.804;2023-03-01T02:57:53;1.50;;;1.30;;
20334;SDS011;10325;51.468;5.804;2023-03-01T03:00:26;2.63;;;1.27;;
20334;SDS011;10325;51.468;5.804;2023-03-01T03:03:02;1.57;;;1.47;;
20334;SDS011;10325;51.468;5.804;2023-03-01T03:05:34;2.00;;;1.40;;
20334;SDS011;10325;51.468;5.804;2023-03-01T03:08:08;1.57;;;1.40;;
20334;SDS011;10325;51.468;5.804;2023-03-01T03:10:38;1.60;;;1.50;;
20334;SDS011;10325;51.468;5.804;2023-03-01T03:13:17;1.43;;;1.10;;
20334;SDS011;10325;51.468;5.804;2023-03-01T03:15:49;1.80;;;1.50;;
20334;SDS011;10325;51.468;5.804;2023-03-01T03:18:19;1.70;;;1.40;;
20334;SDS011;10325;51.468;5.804;2023-03-01T03:20:50;1.37;;;1.27;;
20334;SDS011;10325;51.468;5.804;2023-03-01T03:23:23;1.57;;;1.47;;
20334;SDS011;10325;51.468;5.804;2023-03-01T03:25:55;1.77;;;1.50;;
20334;SDS011;10325;51.468;5.804;2023-03-01T03:28:38;2.90;;;1.57;;
20334;SDS011;10325;51.468;5.804;2023-03-01T03:31:08;1.53;;;1.40;;
20334;SDS011;10325;51.468;5.804;2023-03-01T03:33:39;1.50;;;1.40;;
20334;SDS011;10325;51.468;5.804;2023-03-01T03:36:24;1.73;;;1.30;;
20334;SDS011;10325;51.468;5.804;2023-03-01T03:38:54;1.70;;;1.40;;
20334;SDS011;10325;51.468;5.804;2023-03-01T03:41:25;1.33;;;1.23;;
20334;SDS011;10325;51.468;5.804;2023-03-01T03:43:56;1.53;;;1.30;;
20334;SDS011;10325;51.468;5.804;2023-03-01T03:46:27;1.77;;;1.43;;
20334;SDS011;10325;51.468;5.804;2023-03-01T03:48:59;1.97;;;1.77;;
20334;SDS011;10325;51.468;5.804;2023-03-01T03:51:34;1.40;;;1.30;;
20334;SDS011;10325;51.468;5.804;2023-03-01T03:54:02;2.20;;;1.57;;
20334;SDS011;10325;51.468;5.804;2023-03-01T03:56:29;1.57;;;1.47;;
20334;SDS011;10325;51.468;5.804;2023-03-01T03:59:00;1.90;;;1.70;;
20334;SDS011;10325;51.468;5.804;2023-03-01T04:01:30;2.43;;;1.87;;
20334;SDS011;10325;51.468;5.804;2023-03-01T04:04:02;2.23;;;1.57;;
20334;SDS011;10325;51.468;5.804;2023-03-01T04:06:40;1.87;;;1.57;;
20334;SDS011;10325;51.468;5.804;2023-03-01T04:09:12;1.93;;;1.53;;
20334;SDS011;10325;51.468;5.804;2023-03-01T04:11:42;2.23;;;1.50;;
20334;SDS011;10325;51.468;5.804;2023-03-01T04:14:12;2.40;;;1.60;;
20334;SDS011;10325;51.468;5.804;2023-03-01T04:16:54;1.70;;;1.60;;
20334;SDS011;10325;51.468;5.804;2023-03-01T04:19:21;2.07;;;1.60;;
20334;SDS011;10325;51.468;5.804;2023-03-01T04:21:53;2.13;;;1.93;;
20334;SDS011;10325;51.468;5.804;2023-03-01T04:24:29;1.73;;;1.53;;
20334;SDS011;10325;51.468;5.804;2023-03-01T04:27:02;2.07;;;1.67;;
20334;SDS011;10325;51.468;5.804;2023-03-01T04:29:32;1.60;;;1.50;;
20334;SDS011;10325;51.468;5.804;2023-03-01T04:32:00;2.03;;;1.53;;
20334;SDS011;10325;51.468;5.804;2023-03-01T04:34:33;3.23;;;1.60;;
20334;SDS011;10325;51.468;5.804;2023-03-01T04:37:01;1.63;;;1.50;;
20334;SDS011;10325;51.468;5.804;2023-03-01T04:39:31;2.17;;;1.63;;
20334;SDS011;10325;51.468;5.804;2023-03-01T04:42:02;1.53;;;1.17;;
20334;SDS011;10325;51.468;5.804;2023-03-01T04:44:31;1.97;;;1.83;;
20334;SDS011;10325;51.468;5.804;2023-03-01T04:47:03;2.13;;;1.90;;
20334;SDS011;10325;51.468;5.804;2023-03-01T04:49:32;1.60;;;1.50;;
20334;SDS011;10325;51.468;5.804;2023-03-01T04:52:15;1.93;;;1.30;;
20334;SDS011;10325;51.468;5.804;2023-03-01T04:54:48;1.50;;;1.40;;
20334;SDS011;10325;51.468;5.804;2023-03-01T04:57:22;1.93;;;1.50;;
20334;SDS011;10325;51.468;5.804;2023-03-01T04:59:52;1.53;;;1.30;;
20334;SDS011;10325;51.468;5.804;2023-03-01T05:02:23;2.60;;;2.10;;
20334;SDS011;10325;51.468;5.804;2023-03-01T05:04:51;2.80;;;2.00;;
20334;SDS011;10325;51.468;5.804;2023-03-01T05:07:25;1.97;;;1.77;;
20334;SDS011;10325;51.468;5.804;2023-03-01T05:09:54;1.53;;;1.40;;
20334;SDS011;10325;51.468;5.804;2023-03-01T05:12:24;1.97;;;1.60;;
20334;SDS011;10325;51.468;5.804;2023-03-01T05:14:56;1.57;;;1.47;;
20334;SDS011;10325;51.468;5.804;2023-03-01T05:17:38;1.50;;;1.20;;
20334;SDS011;10325;51.468;5.804;2023-03-01T05:20:10;2.20;;;1.70;;
20334;SDS011;10325;51.468;5.804;2023-03-01T05:22:38;1.60;;;1.30;;
20334;SDS011;10325;51.468;5.804;2023-03-01T05:25:08;1.87;;;1.77;;
20334;SDS011;10325;51.468;5.804;2023-03-01T05:27:40;1.90;;;1.70;;
20334;SDS011;10325;51.468;5.804;2023-03-01T05:30:12;2.40;;;1.40;;
20334;SDS011;10325;51.468;5.804;2023-03-01T05:32:47;2.37;;;2.10;;
20334;SDS011;10325;51.468;5.804;2023-03-01T05:35:18;2.03;;;1.83;;
20334;SDS011;10325;51.468;5.804;2023-03-01T05:37:57;1.60;;;1.50;;
20334;SDS011;10325;51.468;5.804;2023-03-01T05:40:28;1.83;;;1.40;;
20334;SDS011;10325;51.468;5.804;2023-03-01T05:42:57;3.17;;;1.40;;
20334;SDS011;10325;51.468;5.804;2023-03-01T05:45:27;3.00;;;1.13;;
20334;SDS011;10325;51.468;5.804;2023-03-01T05:47:59;1.90;;;1.60;;
20334;SDS011;10325;51.468;5.804;2023-03-01T05:50:32;2.17;;;1.47;;
20334;SDS011;10325;51.468;5.804;2023-03-01T05:53:10;3.87;;;1.50;;
20334;SDS011;10325;51.468;5.804;2023-03-01T05:55:45;1.60;;;1.50;;
20334;SDS011;10325;51.468;5.804;2023-03-01T05:58:18;1.70;;;1.60;;
20334;SDS011;10325;51.468;5.804;2023-03-01T06:00:50;3.43;;;2.13;;
20334;SDS011;10325;51.468;5.804;2023-03-01T06:03:23;1.70;;;1.60;;
20334;SDS011;10325;51.468;5.804;2023-03-01T06:05:56;1.80;;;1.70;;
20334;SDS011;10325;51.468;5.804;2023-03-01T06:08:25;1.90;;;1.80;;
20334;SDS011;10325;51.468;5.804;2023-03-01T06:10:56;2.17;;;1.77;;
20334;SDS011;10325;51.468;5.804;2023-03-01T06:13:27;2.57;;;1.60;;
20334;SDS011;10325;51.468;5.804;2023-03-01T06:16:00;2.30;;;1.87;;
20334;SDS011;10325;51.468;5.804;2023-03-01T06:18:39;1.50;;;1.40;;
20334;SDS011;10325;51.468;5.804;2023-03-01T06:21:32;1.93;;;1.50;;
20334;SDS011;10325;51.468;5.804;2023-03-01T06:24:02;2.67;;;2.03;;
20334;SDS011;10325;51.468;5.804;2023-03-01T06:26:36;2.23;;;2.03;;
20334;SDS011;10325;51.468;5.804;2023-03-01T06:29:06;1.77;;;1.67;;
20334;SDS011;10325;51.468;5.804;2023-03-01T06:31:37;2.33;;;2.13;;
20334;SDS011;10325;51.468;5.804;2023-03-01T06:34:09;1.90;;;1.67;;
20334;SDS011;10325;51.468;5.804;2023-03-01T06:36:44;1.60;;;1.50;;
20334;SDS011;10325;51.468;5.804;2023-03-01T06:39:18;2.33;;;1.83;;
20334;SDS011;10325;51.468;5.804;2023-03-01T06:41:51;1.93;;;1.70;;
20334;SDS011;10325;51.468;5.804;2023-03-01T06:44:31;3.80;;;1.77;;
20334;SDS011;10325;51.468;5.804;2023-03-01T06:47:13;1.93;;;1.80;;
20334;SDS011;10325;51.468;5.804;2023-03-01T06:49:43;7.53;;;1.90;;
20334;SDS011;10325;51.468;5.804;2023-03-01T06:52:13;2.37;;;1.90;;
20334;SDS011;10325;51.468;5.804;2023-03-01T06:54:45;2.93;;;1.87;;
20334;SDS011;10325;51.468;5.804;2023-03-01T06:57:16;3.47;;;1.90;;
20334;SDS011;10325;51.468;5.804;2023-03-01T06:59:46;2.13;;;1.90;;
20334;SDS011;10325;51.468;5.804;2023-03-01T07:02:17;2.03;;;1.70;;
20334;SDS011;10325;51.468;5.804;2023-03-01T07:04:50;2.43;;;2.03;;
20334;SDS011;10325;51.468;5.804;2023-03-01T07:07:21;4.17;;;1.43;;
20334;SDS011;10325;51.468;5.804;2023-03-01T07:09:54;2.20;;;2.00;;
20334;SDS011;10325;51.468;5.804;2023-03-01T07:12:26;4.17;;;2.00;;
20334;SDS011;10325;51.468;5.804;2023-03-01T07:14:57;2.30;;;2.07;;
20334;SDS011;10325;51.468;5.804;2023-03-01T07:17:26;2.27;;;2.07;;
20334;SDS011;10325;51.468;5.804;2023-03-01T07:19:58;2.03;;;1.83;;
20334;SDS011;10325;51.468;5.804;2023-03-01T07:22:26;2.27;;;2.00;;
20334;SDS011;10325;51.468;5.804;2023-03-01T07:24:54;2.90;;;2.10;;
20334;SDS011;10325;51.468;5.804;2023-03-01T07:27:23;3.30;;;1.90;;
20334;SDS011;10325;51.468;5.804;2023-03-01T07:29:54;3.50;;;1.70;;
20334;SDS011;10325;51.468;5.804;2023-03-01T07:32:25;1.50;;;1.40;;
20334;SDS011;10325;51.468;5.804;2023-03-01T07:35:05;4.33;;;1.87;;
20334;SDS011;10325;51.468;5.804;2023-03-01T07:37:36;1.87;;;1.50;;
20334;SDS011;10325;51.468;5.804;2023-03-01T07:40:09;2.83;;;1.90;;
20334;SDS011;10325;51.468;5.804;2023-03-01T07:42:44;2.50;;;1.97;;
20334;SDS011;10325;51.468;5.804;2023-03-01T07:45:14;2.60;;;1.50;;
20334;SDS011;10325;51.468;5.804;2023-03-01T07:47:45;6.07;;;2.93;;
20334;SDS011;10325;51.468;5.804;2023-03-01T07:50:19;69.20;;;15.67;;
20334;SDS011;10325;51.468;5.804;2023-03-01T07:52:50;60.67;;;16.50;;
20334;SDS011;10325;51.468;5.804;2023-03-01T07:55:24;59.03;;;14.67;;
20334;SDS011;10325;51.468;5.804;2023-03-01T07:57:55;46.53;;;13.30;;
20334;SDS011;10325;51.468;5.804;2023-03-01T08:00:23;45.53;;;12.17;;
20334;SDS011;10325;51.468;5.804;2023-03-01T08:02:54;36.60;;;11.40;;
20334;SDS011;10325;51.468;5.804;2023-03-01T08:05:25;39.33;;;10.40;;
20334;SDS011;10325;51.468;5.804;2023-03-01T08:07:53;30.17;;;9.17;;
20334;SDS011;10325;51.468;5.804;2023-03-01T08:10:23;27.87;;;9.17;;
20334;SDS011;10325;51.468;5.804;2023-03-01T08:12:54;31.67;;;8.37;;
20334;SDS011;10325;51.468;5.804;2023-03-01T08:15:24;28.70;;;8.03;;
20334;SDS011;10325;51.468;5.804;2023-03-01T08:17:52;25.73;;;7.27;;
20334;SDS011;10325;51.468;5.804;2023-03-01T08:20:22;21.07;;;7.03;;
20334;SDS011;10325;51.468;5.804;2023-03-01T08:22:57;16.63;;;5.90;;
20334;SDS011;10325;51.468;5.804;2023-03-01T08:25:28;17.00;;;6.50;;
20334;SDS011;10325;51.468;5.804;2023-03-01T08:28:00;17.43;;;5.57;;
20334;SDS011;10325;51.468;5.804;2023-03-01T08:30:31;12.57;;;5.00;;
20334;SDS011;10325;51.468;5.804;2023-03-01T08:33:03;15.23;;;4.90;;
20334;SDS011;10325;51.468;5.804;2023-03-01T08:35:34;16.40;;;4.90;;
20334;SDS011;10325;51.468;5.804;2023-03-01T08:38:05;9.30;;;4.00;;
20334;SDS011;10325;51.468;5.804;2023-03-01T08:40:38;12.53;;;4.33;;
20334;SDS011;10325;51.468;5.804;2023-03-01T08:43:11;11.40;;;3.90;;
20334;SDS011;10325;51.468;5.804;2023-03-01T08:45:43;7.87;;;3.53;;
20334;SDS011;10325;51.468;5.804;2023-03-01T08:48:13;14.33;;;4.40;;
20334;SDS011;10325;51.468;5.804;2023-03-01T08:50:44;9.93;;;3.87;;
20334;SDS011;10325;51.468;5.804;2023-03-01T08:53:15;7.83;;;3.50;;
20334;SDS011;10325;51.468;5.804;2023-03-01T08:55:45;9.70;;;3.23;;
20334;SDS011;10325;51.468;5.804;2023-03-01T08:58:26;6.47;;;3.10;;
20334;SDS011;10325;51.468;5.804;2023-03-01T09:00:56;5.83;;;2.43;;
20334;SDS011;10325;51.468;5.804;2023-03-01T09:03:27;5.87;;;2.57;;
20334;SDS011;10325;51.468;5.804;2023-03-01T09:05:54;7.07;;;2.90;;
20334;SDS011;10325;51.468;5.804;2023-03-01T09:08:33;6.50;;;2.80;;
20334;SDS011;10325;51.468;5.804;2023-03-01T09:11:06;7.70;;;3.60;;
20334;SDS011;10325;51.468;5.804;2023-03-01T09:13:36;5.03;;;2.60;;
20334;SDS011;10325;51.468;5.804;2023-03-01T09:16:10;5.20;;;2.90;;
20334;SDS011;10325;51.468;5.804;2023-03-01T09:18:52;7.53;;;3.33;;
20334;SDS011;10325;51.468;5.804;2023-03-01T09:21:22;7.73;;;3.03;;
20334;SDS011;10325;51.468;5.804;2023-03-01T09:24:11;3.83;;;2.87;;
20334;SDS011;10325;51.468;5.804;2023-03-01T09:26:42;4.90;;;2.60;;
20334;SDS011;10325;51.468;5.804;2023-03-01T09:29:18;5.47;;;3.00;;
20334;SDS011;10325;51.468;5.804;2023-03-01T09:31:49;4.00;;;2.70;;
20334;SDS011;10325;51.468;5.804;2023-03-01T09:34:29;7.33;;;3.10;;
20334;SDS011;10325;51.468;5.804;2023-03-01T09:37:01;4.70;;;3.10;;
20334;SDS011;10325;51.468;5.804;2023-03-01T09:39:33;4.10;;;2.90;;
20334;SDS011;10325;51.468;5.804;2023-03-01T09:42:04;6.67;;;3.60;;
20334;SDS011;10325;51.468;5.804;2023-03-01T09:44:40;5.10;;;3.13;;
20334;SDS011;10325;51.468;5.804;2023-03-01T09:47:20;4.87;;;2.37;;
20334;SDS011;10325;51.468;5.804;2023-03-01T09:50:17;3.77;;;2.57;;
20334;SDS011;10325;51.468;5.804;2023-03-01T09:53:10;3.60;;;2.27;;
20334;SDS011;10325;51.468;5.804;2023-03-01T09:55:48;3.23;;;2.53;;
20334;SDS011;10325;51.468;5.804;2023-03-01T10:01:54;3.77;;;2.83;;
20334;SDS011;10325;51.468;5.804;2023-03-01T10:04:27;3.53;;;2.67;;
20334;SDS011;10325;51.468;5.804;2023-03-01T10:10:24;3.37;;;2.20;;
20334;SDS011;10325;51.468;5.804;2023-03-01T10:12:56;3.73;;;2.77;;
20334;SDS011;10325;51.468;5.804;2023-03-01T10:15:32;3.73;;;3.00;;
20334;SDS011;10325;51.468;5.804;2023-03-01T10:18:14;4.03;;;2.63;;
20334;SDS011;10325;51.468;5.804;2023-03-01T10:21:00;4.97;;;2.20;;
20334;SDS011;10325;51.468;5.804;2023-03-01T10:23:52;4.53;;;2.57;;
20334;SDS011;10325;51.468;5.804;2023-03-01T10:29:41;4.73;;;2.70;;
20334;SDS011;10325;51.468;5.804;2023-03-01T10:32:20;4.17;;;2.40;;
20334;SDS011;10325;51.468;5.804;2023-03-01T10:34:51;3.70;;;2.67;;
20334;SDS011;10325;51.468;5.804;2023-03-01T10:37:23;4.80;;;3.27;;
20334;SDS011;10325;51.468;5.804;2023-03-01T10:42:39;5.00;;;2.43;;
20334;SDS011;10325;51.468;5.804;2023-03-01T10:45:29;4.20;;;2.00;;
20334;SDS011;10325;51.468;5.804;2023-03-01T10:48:22;2.00;;;1.80;;
20334;SDS011;10325;51.468;5.804;2023-03-01T10:53:41;2.80;;;1.90;;
20334;SDS011;10325;51.468;5.804;2023-03-01T10:56:30;2.40;;;1.70;;
20334;SDS011;10325;51.468;5.804;2023-03-01T10:59:29;2.63;;;1.77;;
20334;SDS011;10325;51.468;5.804;2023-03-01T11:02:17;2.23;;;1.97;;
20334;SDS011;10325;51.468;5.804;2023-03-01T11:05:02;2.00;;;1.70;;
20334;SDS011;10325;51.468;5.804;2023-03-01T11:08:00;1.97;;;1.73;;
20334;SDS011;10325;51.468;5.804;2023-03-01T11:10:35;2.50;;;1.70;;
20334;SDS011;10325;51.468;5.804;2023-03-01T11:16:01;5.23;;;1.80;;
20334;SDS011;10325;51.468;5.804;2023-03-01T11:18:36;2.40;;;1.67;;
20334;SDS011;10325;51.468;5.804;2023-03-01T11:21:15;1.63;;;1.37;;
20334;SDS011;10325;51.468;5.804;2023-03-01T11:23:45;2.93;;;1.97;;
20334;SDS011;10325;51.468;5.804;2023-03-01T11:26:20;2.43;;;1.80;;
20334;SDS011;10325;51.468;5.804;2023-03-01T11:28:53;3.27;;;1.77;;
20334;SDS011;10325;51.468;5.804;2023-03-01T11:31:35;3.00;;;2.30;;
20334;SDS011;10325;51.468;5.804;2023-03-01T11:34:35;2.30;;;2.10;;
20334;SDS011;10325;51.468;5.804;2023-03-01T11:43:42;2.17;;;1.93;;
20334;SDS011;10325;51.468;5.804;2023-03-01T11:55:23;2.60;;;2.13;;
20334;SDS011;10325;51.468;5.804;2023-03-01T11:58:20;2.77;;;2.07;;
20334;SDS011;10325;51.468;5.804;2023-03-01T12:10:25;3.47;;;2.03;;
20334;SDS011;10325;51.468;5.804;2023-03-01T12:40:01;2.03;;;1.73;;
20334;SDS011;10325;51.468;5.804;2023-03-01T12:42:56;4.90;;;2.47;;
20334;SDS011;10325;51.468;5.804;2023-03-01T12:46:21;2.20;;;2.00;;
20334;SDS011;10325;51.468;5.804;2023-03-01T12:48:59;4.07;;;2.30;;
20334;SDS011;10325;51.468;5.804;2023-03-01T12:51:44;2.30;;;1.93;;
20334;SDS011;10325;51.468;5.804;2023-03-01T12:54:33;2.57;;;1.93;;
20334;SDS011;10325;51.468;5.804;2023-03-01T12:57:42;3.13;;;2.27;;
20334;SDS011;10325;51.468;5.804;2023-03-01T13:12:44;5.47;;;2.10;;
20334;SDS011;10325;51.468;5.804;2023-03-01T13:15:27;2.60;;;2.07;;
20334;SDS011;10325;51.468;5.804;2023-03-01T13:20:55;2.07;;;1.87;;
20334;SDS011;10325;51.468;5.804;2023-03-01T13:23:29;2.27;;;2.07;;
20334;SDS011;10325;51.468;5.804;2023-03-01T13:26:06;2.70;;;2.00;;
20334;SDS011;10325;51.468;5.804;2023-03-01T13:28:54;3.30;;;1.87;;
20334;SDS011;10325;51.468;5.804;2023-03-01T13:34:01;2.70;;;2.20;;
20334;SDS011;10325;51.468;5.804;2023-03-01T13:39:04;3.67;;;1.80;;
20334;SDS011;10325;51.468;5.804;2023-03-01T13:41:57;2.20;;;1.80;;
20334;SDS011;10325;51.468;5.804;2023-03-01T13:44:33;2.90;;;2.00;;
20334;SDS011;10325;51.468;5.804;2023-03-01T13:49:55;2.20;;;2.00;;
20334;SDS011;10325;51.468;5.804;2023-03-01T13:52:43;3.03;;;1.63;;
20334;SDS011;10325;51.468;5.804;2023-03-01T13:55:34;1.77;;;1.60;;
20334;SDS011;10325;51.468;5.804;2023-03-01T13:58:25;2.30;;;1.60;;
20334;SDS011;10325;51.468;5.804;2023-03-01T14:01:40;2.23;;;1.90;;
20334;SDS011;10325;51.468;5.804;2023-03-01T14:07:11;2.10;;;1.63;;
20334;SDS011;10325;51.468;5.804;2023-03-01T14:10:12;2.30;;;1.90;;
20334;SDS011;10325;51.468;5.804;2023-03-01T14:15:42;2.27;;;1.60;;
20334;SDS011;10325;51.468;5.804;2023-03-01T14:18:39;1.97;;;1.63;;
20334;SDS011;10325;51.468;5.804;2023-03-01T14:21:21;1.93;;;1.83;;
20334;SDS011;10325;51.468;5.804;2023-03-01T14:23:54;1.60;;;1.50;;
20334;SDS011;10325;51.468;5.804;2023-03-01T14:26:25;2.73;;;1.90;;
20334;SDS011;10325;51.468;5.804;2023-03-01T14:28:54;1.33;;;1.23;;
20334;SDS011;10325;51.468;5.804;2023-03-01T14:31:36;2.10;;;1.50;;
20334;SDS011;10325;51.468;5.804;2023-03-01T14:34:20;1.97;;;1.50;;
20334;SDS011;10325;51.468;5.804;2023-03-01T14:37:40;1.70;;;1.60;;
20334;SDS011;10325;51.468;5.804;2023-03-01T14:40:03;1.70;;;1.60;;
20334;SDS011;10325;51.468;5.804;2023-03-01T14:42:45;2.27;;;1.53;;
20334;SDS011;10325;51.468;5.804;2023-03-01T14:45:16;1.93;;;1.70;;
20334;SDS011;10325;51.468;5.804;2023-03-01T14:47:46;4.00;;;1.80;;
20334;SDS011;10325;51.468;5.804;2023-03-01T14:50:20;4.00;;;1.60;;
20334;SDS011;10325;51.468;5.804;2023-03-01T14:53:03;2.23;;;2.03;;
20334;SDS011;10325;51.468;5.804;2023-03-01T14:55:37;2.80;;;1.80;;
20334;SDS011;10325;51.468;5.804;2023-03-01T14:58:14;1.67;;;1.57;;
20334;SDS011;10325;51.468;5.804;2023-03-01T15:00:55;1.90;;;1.67;;
20334;SDS011;10325;51.468;5.804;2023-03-01T15:03:42;2.93;;;1.70;;
20334;SDS011;10325;51.468;5.804;2023-03-01T15:06:18;2.63;;;1.53;;
20334;SDS011;10325;51.468;5.804;2023-03-01T15:08:52;2.50;;;1.53;;
20334;SDS011;10325;51.468;5.804;2023-03-01T15:13:56;2.93;;;1.40;;
20334;SDS011;10325;51.468;5.804;2023-03-01T15:16:29;1.87;;;1.33;;
20334;SDS011;10325;51.468;5.804;2023-03-01T15:18:59;2.60;;;1.50;;
20334;SDS011;10325;51.468;5.804;2023-03-01T15:21:36;2.13;;;1.30;;
20334;SDS011;10325;51.468;5.804;2023-03-01T15:24:25;2.33;;;1.47;;
20334;SDS011;10325;51.468;5.804;2023-03-01T15:26:59;1.47;;;1.30;;
20334;SDS011;10325;51.468;5.804;2023-03-01T15:29:33;1.80;;;1.13;;
20334;SDS011;10325;51.468;5.804;2023-03-01T15:38:27;1.30;;;1.20;;
20334;SDS011;10325;51.468;5.804;2023-03-01T15:41:24;1.87;;;1.50;;
20334;SDS011;10325;51.468;5.804;2023-03-01T15:47:24;1.83;;;1.27;;
20334;SDS011;10325;51.468;5.804;2023-03-01T15:49:56;1.50;;;1.30;;
20334;SDS011;10325;51.468;5.804;2023-03-01T15:52:34;2.33;;;1.10;;
20334;SDS011;10325;51.468;5.804;2023-03-01T15:55:20;1.67;;;1.10;;
20334;SDS011;10325;51.468;5.804;2023-03-01T15:58:19;5.17;;;1.40;;
20334;SDS011;10325;51.468;5.804;2023-03-01T16:00:51;2.40;;;1.40;;
20334;SDS011;10325;51.468;5.804;2023-03-01T16:03:28;1.20;;;1.00;;
20334;SDS011;10325;51.468;5.804;2023-03-01T16:06:00;1.70;;;1.40;;
20334;SDS011;10325;51.468;5.804;2023-03-01T16:08:33;1.63;;;1.33;;
20334;SDS011;10325;51.468;5.804;2023-03-01T16:11:02;1.83;;;1.43;;
20334;SDS011;10325;51.468;5.804;2023-03-01T16:13:34;1.50;;;1.27;;
20334;SDS011;10325;51.468;5.804;2023-03-01T16:16:03;1.97;;;1.47;;
20334;SDS011;10325;51.468;5.804;2023-03-01T16:18:32;1.77;;;1.60;;
20334;SDS011;10325;51.468;5.804;2023-03-01T16:21:01;5.70;;;1.50;;
20334;SDS011;10325;51.468;5.804;2023-03-01T16:23:30;2.17;;;1.57;;
20334;SDS011;10325;51.468;5.804;2023-03-01T16:26:02;2.83;;;1.50;;
20334;SDS011;10325;51.468;5.804;2023-03-01T16:28:37;3.63;;;1.73;;
20334;SDS011;10325;51.468;5.804;2023-03-01T16:31:11;2.53;;;1.60;;
20334;SDS011;10325;51.468;5.804;2023-03-01T16:33:46;2.97;;;1.60;;
20334;SDS011;10325;51.468;5.804;2023-03-01T16:36:21;1.77;;;1.67;;
20334;SDS011;10325;51.468;5.804;2023-03-01T16:38:57;1.77;;;1.60;;
20334;SDS011;10325;51.468;5.804;2023-03-01T16:41:41;1.93;;;1.60;;
20334;SDS011;10325;51.468;5.804;2023-03-01T16:44:12;2.30;;;1.77;;
20334;SDS011;10325;51.468;5.804;2023-03-01T16:46:42;1.43;;;1.33;;
20334;SDS011;10325;51.468;5.804;2023-03-01T16:49:16;1.90;;;1.60;;
20334;SDS011;10325;51.468;5.804;2023-03-01T16:51:48;1.60;;;1.50;;
20334;SDS011;10325;51.468;5.804;2023-03-01T16:54:20;2.30;;;1.67;;
20334;SDS011;10325;51.468;5.804;2023-03-01T16:56:48;2.07;;;1.47;;
20334;SDS011;10325;51.468;5.804;2023-03-01T16:59:16;1.70;;;1.57;;
20334;SDS011;10325;51.468;5.804;2023-03-01T17:01:48;2.13;;;1.67;;
20334;SDS011;10325;51.468;5.804;2023-03-01T17:04:18;1.70;;;1.60;;
20334;SDS011;10325;51.468;5.804;2023-03-01T17:06:48;1.90;;;1.70;;
20334;SDS011;10325;51.468;5.804;2023-03-01T17:09:20;3.40;;;1.70;;
20334;SDS011;10325;51.468;5.804;2023-03-01T17:11:52;1.90;;;1.60;;
20334;SDS011;10325;51.468;5.804;2023-03-01T17:14:21;1.83;;;1.50;;
20334;SDS011;10325;51.468;5.804;2023-03-01T17:16:50;1.97;;;1.33;;
20334;SDS011;10325;51.468;5.804;2023-03-01T17:19:19;1.60;;;1.50;;
20334;SDS011;10325;51.468;5.804;2023-03-01T17:21:48;2.20;;;1.50;;
20334;SDS011;10325;51.468;5.804;2023-03-01T17:24:17;2.10;;;1.60;;
20334;SDS011;10325;51.468;5.804;2023-03-01T17:26:48;2.00;;;1.30;;
20334;SDS011;10325;51.468;5.804;2023-03-01T17:29:20;1.90;;;1.40;;
20334;SDS011;10325;51.468;5.804;2023-03-01T17:31:53;1.77;;;1.47;;
20334;SDS011;10325;51.468;5.804;2023-03-01T17:34:24;2.27;;;1.70;;